Terminal Aerodrome Forecast
Issued by NWS

Home | Current Version | Previous Version | Text Only | Print | Product List | Glossary On
Versions: 1 2 3 4 5 6 7 8 9 10 11 12 13
014
FTUS44 KTSA 060534
TAFFYV
TAF
KFYV 060534Z 0606/0706 00000KT P6SM BKN120
     FM061700 24007KT P6SM SKC
     FM070000 22003KT P6SM SKC=

USA.gov is the U.S. government's official web portal to all federal, state and local government web resources and services.